Time;durP1;ratioP1;P1;durP2;ratioP2;P2;SDS_P1;SDS_P2;PMS_P1;PMS_P2;Temp;Humidity;BMP_temperature;BMP_pressure;BME280_temperature;BME280_humidity;BME280_pressure;Samples;Min_cycle;Max_cycle;Signal;HPM_P1;HPM_P2
2021/09/25 00:01:32;;;;;;;;;;;19.00;99.90;;;;;;5013356;28;19940;-72
2021/09/25 00:04:36;;;;;;;;;;;19.00;99.90;;;;;;4993212;28;19921;-72
2021/09/25 00:07:40;;;;;;;;;;;19.00;99.90;;;;;;4995596;28;19980;-72
2021/09/25 00:10:44;;;;;;;;;;;19.00;99.90;;;;;;5012896;28;19921;-72
2021/09/25 00:13:49;;;;;;;;;;;19.00;99.90;;;;;;5011993;28;19923;-72
2021/09/25 00:16:53;;;;;;;;;;;18.90;99.90;;;;;;5011337;28;19924;-72
2021/09/25 00:19:57;;;;;;;;;;;18.80;99.90;;;;;;5012719;28;19924;-72
2021/09/25 00:23:02;;;;;;;;;;;18.60;99.90;;;;;;5009514;28;19920;-72
2021/09/25 00:26:06;;;;;;;;;;;18.60;99.90;;;;;;5006298;28;20178;-71
2021/09/25 00:29:10;;;;;;;;;;;18.50;99.90;;;;;;5011779;28;20387;-72
2021/09/25 00:32:14;;;;;;;;;;;18.50;99.90;;;;;;5012539;28;19921;-71
2021/09/25 00:35:18;;;;;;;;;;;18.40;99.90;;;;;;5006117;28;19940;-71
2021/09/25 00:38:22;;;;;;;;;;;18.40;99.90;;;;;;5009627;28;19929;-72
2021/09/25 00:41:26;;;;;;;;;;;18.40;99.90;;;;;;4992523;28;20317;-71
2021/09/25 00:44:31;;;;;;;;;;;18.30;99.90;;;;;;4992519;28;19921;-71
2021/09/25 00:47:36;;;;;;;;;;;18.30;99.90;;;;;;4992468;28;19921;-72
2021/09/25 00:50:40;;;;;;;;;;;18.20;99.90;;;;;;4992671;28;19924;-72
2021/09/25 00:53:44;;;;;;;;;;;18.10;99.90;;;;;;4996546;28;19925;-72
2021/09/25 00:56:48;;;;;;;;;;;18.00;99.90;;;;;;5001539;28;19921;-72
2021/09/25 00:59:52;;;;;;;;;;;18.00;99.90;;;;;;5011677;28;19924;-72
2021/09/25 01:02:56;;;;;;;;;;;17.90;99.90;;;;;;5002362;28;19920;-72
2021/09/25 01:06:00;;;;;;;;;;;17.90;99.90;;;;;;5002136;28;20415;-72
2021/09/25 01:09:05;;;;;;;;;;;17.80;99.90;;;;;;4992420;28;19944;-72
2021/09/25 01:12:09;;;;;;;;;;;17.90;99.90;;;;;;4992134;28;19913;-72
2021/09/25 01:15:14;;;;;;;;;;;17.90;99.90;;;;;;4996134;28;19929;-72
2021/09/25 01:18:20;;;;;;;;;;;18.00;99.90;;;;;;4992070;28;20285;-72
2021/09/25 01:21:24;;;;;;;;;;;18.00;99.90;;;;;;5010966;28;20022;-72
2021/09/25 01:24:28;;;;;;;;;;;18.00;99.90;;;;;;4997711;28;20380;-72
2021/09/25 01:27:32;;;;;;;;;;;18.00;99.90;;;;;;4991499;28;19929;-72
2021/09/25 01:30:36;;;;;;;;;;;17.90;99.90;;;;;;4972358;28;19941;-72
2021/09/25 01:33:43;;;;;;;;;;;17.80;99.90;;;;;;4992288;28;19933;-72
2021/09/25 01:36:49;;;;;;;;;;;17.80;99.90;;;;;;4991509;28;19921;-72
2021/09/25 01:39:53;;;;;;;;;;;17.70;99.90;;;;;;4991487;28;19924;-72
2021/09/25 01:42:57;;;;;;;;;;;17.60;99.90;;;;;;4993651;28;19940;-72
2021/09/25 01:46:02;;;;;;;;;;;17.60;99.90;;;;;;4992638;28;20372;-72
2021/09/25 01:49:06;;;;;;;;;;;17.50;99.90;;;;;;5011065;28;19924;-72
2021/09/25 01:52:10;;;;;;;;;;;17.40;99.90;;;;;;5006605;28;19925;-72
2021/09/25 01:55:14;;;;;;;;;;;17.30;99.90;;;;;;4990403;28;19926;-72
2021/09/25 01:58:18;;;;;;;;;;;17.30;99.90;;;;;;4992156;28;19921;-72
2021/09/25 02:01:22;;;;;;;;;;;17.30;99.90;;;;;;4994260;28;19993;-72
2021/09/25 02:04:26;;;;;;;;;;;17.30;99.90;;;;;;4991058;28;19928;-72
2021/09/25 02:07:30;;;;;;;;;;;17.20;99.90;;;;;;4991145;28;20380;-72
2021/09/25 02:10:34;;;;;;;;;;;17.20;99.90;;;;;;4989344;28;19925;-72
2021/09/25 02:13:38;;;;;;;;;;;17.20;99.90;;;;;;4995888;28;20408;-72
2021/09/25 02:16:42;;;;;;;;;;;17.10;99.90;;;;;;5001309;28;19940;-72
2021/09/25 02:19:46;;;;;;;;;;;17.00;99.90;;;;;;5010837;28;19924;-72
2021/09/25 02:22:50;;;;;;;;;;;16.90;99.90;;;;;;5006619;28;19921;-72
2021/09/25 02:25:55;;;;;;;;;;;16.90;99.90;;;;;;4990443;28;20300;-72
2021/09/25 02:28:59;;;;;;;;;;;16.90;99.90;;;;;;4972033;28;19925;-72
2021/09/25 02:32:03;;;;;;;;;;;16.90;99.90;;;;;;4991835;28;19921;-72
2021/09/25 02:35:07;;;;;;;;;;;16.90;99.90;;;;;;4994799;28;19928;-72
2021/09/25 02:38:12;;;;;;;;;;;16.80;99.90;;;;;;5010510;28;19925;-72
2021/09/25 02:41:16;;;;;;;;;;;16.80;99.90;;;;;;5004160;28;19924;-72
2021/09/25 02:44:20;;;;;;;;;;;16.80;99.90;;;;;;5003372;28;19921;-72
2021/09/25 02:47:23;;;;;;;;;;;16.80;99.90;;;;;;4990927;28;19917;-72
2021/09/25 02:50:28;;;;;;;;;;;16.80;99.90;;;;;;5011629;28;19921;-72
2021/09/25 02:53:32;;;;;;;;;;;16.70;99.90;;;;;;4995483;28;20294;-72
2021/09/25 02:56:36;;;;;;;;;;;16.60;99.90;;;;;;4990333;28;19918;-72
2021/09/25 02:59:40;;;;;;;;;;;16.50;99.90;;;;;;5004880;28;19920;-72
2021/09/25 03:02:45;;;;;;;;;;;16.40;99.90;;;;;;5009199;28;19920;-72
2021/09/25 03:05:49;;;;;;;;;;;16.40;99.90;;;;;;5010273;28;19924;-72
2021/09/25 03:08:53;;;;;;;;;;;16.40;99.90;;;;;;5009126;28;19920;-72
2021/09/25 03:11:57;;;;;;;;;;;16.40;99.90;;;;;;5004204;28;20272;-72
2021/09/25 03:15:02;;;;;;;;;;;16.40;99.90;;;;;;5008046;28;20394;-72
2021/09/25 03:18:06;;;;;;;;;;;16.40;99.90;;;;;;4971068;28;19925;-72
2021/09/25 03:21:10;;;;;;;;;;;16.40;99.90;;;;;;4991246;28;19921;-72
2021/09/25 03:24:14;;;;;;;;;;;16.30;99.90;;;;;;4997079;28;19921;-72
2021/09/25 03:27:18;;;;;;;;;;;16.30;99.90;;;;;;4974987;28;19925;-72
2021/09/25 03:30:22;;;;;;;;;;;16.30;99.90;;;;;;5002198;28;19929;-72
2021/09/25 03:33:26;;;;;;;;;;;16.20;99.90;;;;;;5011953;28;19944;-72
2021/09/25 03:36:30;;;;;;;;;;;16.20;99.90;;;;;;4974003;28;19925;-72
2021/09/25 03:39:34;;;;;;;;;;;16.20;99.90;;;;;;5010964;28;19925;-72
2021/09/25 03:42:38;;;;;;;;;;;16.10;99.90;;;;;;5007670;28;19921;-72
2021/09/25 03:45:42;;;;;;;;;;;16.10;99.90;;;;;;5013474;28;20288;-72
2021/09/25 03:48:47;;;;;;;;;;;16.10;99.90;;;;;;4990010;28;19925;-72
2021/09/25 03:51:51;;;;;;;;;;;16.00;99.90;;;;;;4987588;28;20316;-72
2021/09/25 03:54:55;;;;;;;;;;;16.10;99.90;;;;;;5012547;28;19941;-72
2021/09/25 03:57:59;;;;;;;;;;;16.10;99.90;;;;;;5008644;28;20292;-72
2021/09/25 04:01:04;;;;;;;;;;;16.10;99.90;;;;;;5011726;28;19928;-72
2021/09/25 04:04:09;;;;;;;;;;;16.10;99.90;;;;;;5012424;28;19921;-72
2021/09/25 04:07:13;;;;;;;;;;;16.10;99.90;;;;;;4993243;28;19921;-72
2021/09/25 04:10:17;;;;;;;;;;;16.10;99.90;;;;;;5001444;28;19921;-71
2021/09/25 04:13:21;;;;;;;;;;;16.20;99.90;;;;;;5010153;28;19928;-72
2021/09/25 04:16:27;;;;;;;;;;;16.20;99.90;;;;;;4973222;28;19918;-72
2021/09/25 04:19:31;;;;;;;;;;;16.10;99.90;;;;;;4994559;28;19921;-71
2021/09/25 04:22:35;;;;;;;;;;;16.10;99.90;;;;;;4993467;28;19937;-71
2021/09/25 04:25:39;;;;;;;;;;;16.00;99.90;;;;;;4992607;28;19921;-71
2021/09/25 04:28:43;;;;;;;;;;;15.90;99.90;;;;;;5008739;28;19920;-71
2021/09/25 04:31:47;;;;;;;;;;;15.80;99.90;;;;;;5010564;28;19921;-72
2021/09/25 04:34:51;;;;;;;;;;;15.70;99.90;;;;;;4992327;28;19936;-72
2021/09/25 04:37:56;;;;;;;;;;;15.70;99.90;;;;;;4998159;28;19914;-72
2021/09/25 04:41:00;;;;;;;;;;;15.70;99.90;;;;;;5000567;28;19972;-72
2021/09/25 04:44:04;;;;;;;;;;;15.70;99.90;;;;;;5023352;28;19914;-72
2021/09/25 04:47:08;;;;;;;;;;;15.70;99.90;;;;;;4989691;28;19925;-71
2021/09/25 04:50:13;;;;;;;;;;;15.60;99.90;;;;;;4996328;28;19944;-72
2021/09/25 04:53:17;;;;;;;;;;;15.60;99.90;;;;;;4992224;28;19937;-72
2021/09/25 04:56:21;;;;;;;;;;;15.60;99.90;;;;;;5009609;28;19941;-72
2021/09/25 04:59:25;;;;;;;;;;;15.50;99.90;;;;;;5005942;28;19925;-72
2021/09/25 05:02:30;;;;;;;;;;;15.50;99.90;;;;;;5011338;28;19936;-72
2021/09/25 05:05:35;;;;;;;;;;;15.50;99.90;;;;;;4973048;28;19921;-72
2021/09/25 05:08:39;;;;;;;;;;;15.50;99.90;;;;;;4987706;28;19925;-72
2021/09/25 05:11:43;;;;;;;;;;;15.40;99.90;;;;;;4995496;28;20296;-71
2021/09/25 05:14:47;;;;;;;;;;;15.50;99.90;;;;;;5011615;28;19921;-72
2021/09/25 05:17:51;;;;;;;;;;;15.50;99.90;;;;;;4994968;28;19921;-72
2021/09/25 05:20:55;;;;;;;;;;;15.60;99.90;;;;;;4997170;28;19924;-72
2021/09/25 05:24:01;;;;;;;;;;;15.70;99.90;;;;;;4973106;28;19990;-71
2021/09/25 05:27:05;;;;;;;;;;;15.80;99.90;;;;;;5009067;28;19925;-72
2021/09/25 05:30:10;;;;;;;;;;;15.90;99.90;;;;;;5004254;28;19913;-72
2021/09/25 05:33:14;;;;;;;;;;;16.10;99.90;;;;;;4992551;28;19918;-71
2021/09/25 05:36:18;;;;;;;;;;;16.30;99.90;;;;;;4991569;28;19981;-71
2021/09/25 05:39:24;;;;;;;;;;;16.50;99.90;;;;;;5000486;28;19928;-71
2021/09/25 05:42:28;;;;;;;;;;;16.70;99.90;;;;;;5011867;28;19932;-71
2021/09/25 05:45:32;;;;;;;;;;;16.80;99.90;;;;;;5009840;28;19921;-71
2021/09/25 05:48:36;;;;;;;;;;;16.90;99.90;;;;;;5006406;28;19918;-71
2021/09/25 05:51:40;;;;;;;;;;;17.00;99.90;;;;;;4992855;28;19936;-71
2021/09/25 05:54:45;;;;;;;;;;;17.30;99.90;;;;;;4971618;28;19925;-71
2021/09/25 05:57:48;;;;;;;;;;;18.10;99.90;;;;;;4998145;28;20502;-71
2021/09/25 06:00:52;;;;;;;;;;;19.00;99.90;;;;;;5003570;28;19921;-71
2021/09/25 06:03:56;;;;;;;;;;;19.90;99.90;;;;;;4991660;28;19920;-71
2021/09/25 06:07:00;;;;;;;;;;;20.70;99.90;;;;;;5001156;28;20408;-71
2021/09/25 06:10:05;;;;;;;;;;;21.70;99.90;;;;;;5011447;28;19921;-71
2021/09/25 06:13:10;;;;;;;;;;;22.50;99.90;;;;;;4991254;28;19925;-71
2021/09/25 06:16:15;;;;;;;;;;;23.30;99.90;;;;;;4995365;28;19925;-71
2021/09/25 06:19:19;;;;;;;;;;;24.00;99.90;;;;;;4996107;28;20296;-71
2021/09/25 06:22:25;;;;;;;;;;;23.90;99.90;;;;;;5011319;28;19928;-72
2021/09/25 06:25:29;;;;;;;;;;;23.10;99.90;;;;;;4995434;28;20285;-71
2021/09/25 06:28:33;;;;;;;;;;;23.20;99.90;;;;;;4995523;28;19920;-72
2021/09/25 06:31:37;;;;;;;;;;;24.10;99.90;;;;;;4990224;28;19925;-72
2021/09/25 06:34:41;;;;;;;;;;;24.50;99.90;;;;;;4990950;28;19918;-72
2021/09/25 06:37:45;;;;;;;;;;;25.30;99.90;;;;;;4995687;28;19937;-72
2021/09/25 06:40:49;;;;;;;;;;;26.10;99.90;;;;;;4991249;28;19928;-72
2021/09/25 06:43:53;;;;;;;;;;;26.60;99.90;;;;;;5009814;28;19920;-72
2021/09/25 06:46:57;;;;;;;;;;;26.70;99.80;;;;;;5009403;28;19920;-72
2021/09/25 06:50:02;;;;;;;;;;;26.90;99.20;;;;;;5005667;28;19925;-72
2021/09/25 06:53:06;;;;;;;;;;;26.50;99.30;;;;;;4972096;28;19948;-72
2021/09/25 06:56:10;;;;;;;;;;;26.60;99.00;;;;;;4995908;28;19924;-72
2021/09/25 06:59:14;;;;;;;;;;;27.30;98.60;;;;;;5011110;28;19924;-72
2021/09/25 07:02:19;;;;;;;;;;;27.60;97.50;;;;;;4994539;28;19925;-73
2021/09/25 07:05:23;;;;;;;;;;;28.40;95.20;;;;;;5010353;28;19928;-71
2021/09/25 07:08:27;;;;;;;;;;;28.40;95.40;;;;;;5008833;28;19921;-72
2021/09/25 07:11:32;;;;;;;;;;;28.80;95.10;;;;;;4974462;28;19914;-72
2021/09/25 07:14:36;;;;;;;;;;;29.00;94.50;;;;;;5021378;28;19924;-71
2021/09/25 07:17:40;;;;;;;;;;;28.10;94.80;;;;;;5006007;28;19940;-69
2021/09/25 07:20:45;;;;;;;;;;;28.10;95.00;;;;;;4994031;28;19921;-69
2021/09/25 07:23:49;;;;;;;;;;;28.10;94.80;;;;;;4993904;28;20290;-70
2021/09/25 07:26:53;;;;;;;;;;;28.50;94.20;;;;;;4997519;28;19920;-69
2021/09/25 07:29:57;;;;;;;;;;;28.90;93.40;;;;;;5013336;28;19920;-69
2021/09/25 07:33:06;;;;;;;;;;;29.20;93.30;;;;;;4992555;28;20368;-70
2021/09/25 07:36:10;;;;;;;;;;;29.50;92.10;;;;;;5003891;28;19940;-71
2021/09/25 07:39:14;;;;;;;;;;;28.40;93.40;;;;;;5013196;28;19940;-69
2021/09/25 07:42:21;;;;;;;;;;;30.10;91.80;;;;;;4993783;28;19945;-69
2021/09/25 07:45:26;;;;;;;;;;;30.80;91.20;;;;;;5002953;28;19921;-72
2021/09/25 07:48:30;;;;;;;;;;;30.70;91.40;;;;;;5010891;28;19968;-70
2021/09/25 07:51:33;;;;;;;;;;;28.50;92.40;;;;;;5009072;28;20395;-71
2021/09/25 07:54:38;;;;;;;;;;;27.70;93.80;;;;;;4996545;28;19930;-72
2021/09/25 07:57:42;;;;;;;;;;;28.40;93.00;;;;;;4993756;28;19924;-70
2021/09/25 08:00:46;;;;;;;;;;;28.50;93.10;;;;;;5013461;28;20028;-71
2021/09/25 08:03:49;;;;;;;;;;;30.00;91.80;;;;;;4995104;28;19921;-69
2021/09/25 08:06:54;;;;;;;;;;;29.90;92.10;;;;;;4997502;28;19928;-70
2021/09/25 08:09:58;;;;;;;;;;;27.40;93.40;;;;;;4993834;28;19921;-72
2021/09/25 08:13:02;;;;;;;;;;;27.80;94.00;;;;;;4989231;28;19924;-70
2021/09/25 08:16:06;;;;;;;;;;;29.70;92.60;;;;;;4993325;28;20381;-71
2021/09/25 08:19:10;;;;;;;;;;;29.40;91.70;;;;;;4993409;28;19965;-70
2021/09/25 08:22:14;;;;;;;;;;;28.90;92.50;;;;;;5010405;28;19921;-70
2021/09/25 08:25:18;;;;;;;;;;;30.90;91.10;;;;;;5011607;28;19925;-70
2021/09/25 08:28:22;;;;;;;;;;;32.20;90.00;;;;;;5012833;28;19925;-70
2021/09/25 08:31:26;;;;;;;;;;;33.00;86.80;;;;;;4993124;28;20380;-70
2021/09/25 08:34:30;;;;;;;;;;;31.60;89.00;;;;;;4996696;28;19925;-71
2021/09/25 08:37:35;;;;;;;;;;;32.20;87.70;;;;;;4993653;28;19920;-70
2021/09/25 08:40:39;;;;;;;;;;;32.60;85.40;;;;;;4973897;28;20281;-71
2021/09/25 08:43:43;;;;;;;;;;;33.60;84.60;;;;;;4997730;28;20411;-70
2021/09/25 08:46:48;;;;;;;;;;;31.80;84.60;;;;;;5012044;28;19920;-72
2021/09/25 08:49:52;;;;;;;;;;;30.60;89.20;;;;;;4981579;28;19925;-69
2021/09/25 08:52:56;;;;;;;;;;;31.20;86.80;;;;;;5011210;28;19924;-72
2021/09/25 08:56:00;;;;;;;;;;;29.50;89.30;;;;;;5010374;28;19944;-72
2021/09/25 08:59:05;;;;;;;;;;;29.90;90.00;;;;;;4992635;28;19921;-69
2021/09/25 09:02:17;;;;;;;;;;;29.70;89.40;;;;;;4995842;28;19937;-73
2021/09/25 09:05:30;;;;;;;;;;;29.60;90.40;;;;;;4991643;28;19920;-71
2021/09/25 09:08:37;;;;;;;;;;;30.80;88.40;;;;;;4992276;28;19936;-71
2021/09/25 09:11:42;;;;;;;;;;;34.00;82.70;;;;;;4991875;28;19921;-71
2021/09/25 09:14:47;;;;;;;;;;;34.40;82.10;;;;;;5002689;28;19944;-72
2021/09/25 09:17:50;;;;;;;;;;;36.70;78.40;;;;;;5010766;28;19920;-72
2021/09/25 09:21:02;;;;;;;;;;;37.50;75.50;;;;;;4994218;28;19921;-72
2021/09/25 09:24:08;;;;;;;;;;;36.20;72.40;;;;;;5002060;28;19920;-72
2021/09/25 09:27:26;;;;;;;;;;;34.20;77.10;;;;;;5010182;28;19920;-74
2021/09/25 09:30:30;;;;;;;;;;;35.20;77.30;;;;;;4995363;28;19898;-74
2021/09/25 09:33:37;;;;;;;;;;;38.00;74.00;;;;;;5012136;28;20027;-75
2021/09/25 09:36:42;;;;;;;;;;;40.30;70.70;;;;;;5007150;28;19929;-74
2021/09/25 09:39:59;;;;;;;;;;;40.10;66.30;;;;;;5012671;28;19933;-74
2021/09/25 09:43:03;;;;;;;;;;;38.60;69.50;;;;;;5005055;28;20407;-74
2021/09/25 09:46:07;;;;;;;;;;;36.50;67.90;;;;;;4999914;28;19921;-73
2021/09/25 09:49:19;;;;;;;;;;;34.70;72.40;;;;;;4991858;28;19924;-74
2021/09/25 09:52:23;;;;;;;;;;;36.90;69.60;;;;;;4973814;28;19922;-74
2021/09/25 09:55:27;;;;;;;;;;;39.20;67.70;;;;;;4974539;28;19917;-74
2021/09/25 09:58:34;;;;;;;;;;;40.00;66.10;;;;;;4996396;28;19929;-74
2021/09/25 10:01:39;;;;;;;;;;;33.40;70.30;;;;;;4973521;28;19949;-72
2021/09/25 10:04:46;;;;;;;;;;;35.50;70.40;;;;;;4990840;28;19917;-74
2021/09/25 10:07:53;;;;;;;;;;;36.30;69.20;;;;;;4969799;28;20286;-74
2021/09/25 10:10:58;;;;;;;;;;;38.50;67.20;;;;;;4991735;28;19925;-74
2021/09/25 10:14:03;;;;;;;;;;;38.00;65.40;;;;;;4980336;28;19924;-73
2021/09/25 10:17:08;;;;;;;;;;;36.30;66.30;;;;;;4996187;28;19922;-73
2021/09/25 10:20:12;;;;;;;;;;;38.90;64.00;;;;;;4993015;28;19921;-74
2021/09/25 10:23:16;;;;;;;;;;;40.00;62.30;;;;;;5010128;28;19921;-74
2021/09/25 10:26:21;;;;;;;;;;;40.40;61.70;;;;;;5010205;28;19920;-74
2021/09/25 10:29:25;;;;;;;;;;;40.80;58.00;;;;;;5012263;28;19921;-74
2021/09/25 10:32:31;;;;;;;;;;;41.10;58.30;;;;;;4971587;28;19921;-74
2021/09/25 10:35:35;;;;;;;;;;;38.00;57.60;;;;;;4984132;28;20146;-75
2021/09/25 10:38:39;;;;;;;;;;;37.20;58.90;;;;;;5012594;28;19973;-74
2021/09/25 10:41:44;;;;;;;;;;;37.20;60.40;;;;;;4961434;28;20416;-75
2021/09/25 10:44:50;;;;;;;;;;;35.70;61.60;;;;;;4996275;28;20399;-74
2021/09/25 10:48:12;;;;;;;;;;;38.10;60.20;;;;;;4987205;28;19921;-72
2021/09/25 10:51:18;;;;;;;;;;;37.10;60.80;;;;;;4994543;28;19921;-74
2021/09/25 10:54:22;;;;;;;;;;;36.40;62.90;;;;;;4987439;28;19925;-73
2021/09/25 10:57:29;;;;;;;;;;;39.40;61.00;;;;;;5010111;28;19924;-74
2021/09/25 11:00:46;;;;;;;;;;;40.90;59.70;;;;;;5010958;28;19921;-72
2021/09/25 11:03:50;;;;;;;;;;;40.50;59.50;;;;;;5011451;28;20268;-72
2021/09/25 11:06:58;;;;;;;;;;;37.10;62.90;;;;;;5005411;28;20285;-75
2021/09/25 11:10:04;;;;;;;;;;;39.30;61.90;;;;;;5008703;28;19936;-75
2021/09/25 11:13:07;;;;;;;;;;;40.50;60.80;;;;;;4972059;28;19925;-73
2021/09/25 11:16:14;;;;;;;;;;;40.40;58.50;;;;;;5012574;28;19928;-73
2021/09/25 11:19:21;;;;;;;;;;;38.70;60.60;;;;;;5010266;28;19921;-72
2021/09/25 11:22:36;;;;;;;;;;;34.20;64.50;;;;;;4991386;28;20304;-72
2021/09/25 11:25:41;;;;;;;;;;;36.30;64.10;;;;;;4987157;28;19921;-74
2021/09/25 11:28:45;;;;;;;;;;;35.80;64.40;;;;;;4990924;28;20388;-72
2021/09/25 11:31:50;;;;;;;;;;;35.30;63.70;;;;;;4992185;28;19925;-72
2021/09/25 11:34:55;;;;;;;;;;;39.00;62.00;;;;;;5008086;28;19952;-75
2021/09/25 11:38:00;;;;;;;;;;;40.10;60.30;;;;;;5003047;28;19937;-72
2021/09/25 11:41:05;;;;;;;;;;;39.20;61.80;;;;;;4990870;28;19925;-72
2021/09/25 11:44:09;;;;;;;;;;;40.30;60.50;;;;;;4973905;28;19922;-75
2021/09/25 11:47:20;;;;;;;;;;;37.90;60.50;;;;;;4988275;28;19921;-74
2021/09/25 11:50:26;;;;;;;;;;;36.20;62.90;;;;;;5002449;28;19929;-72
2021/09/25 11:53:31;;;;;;;;;;;38.60;62.70;;;;;;5013111;28;20273;-72
2021/09/25 11:56:36;;;;;;;;;;;38.20;62.10;;;;;;4996616;28;19928;-72
2021/09/25 11:59:40;;;;;;;;;;;39.90;61.30;;;;;;4998160;28;19918;-74
2021/09/25 12:02:46;;;;;;;;;;;41.00;60.20;;;;;;4994380;28;19937;-72
2021/09/25 12:05:51;;;;;;;;;;;41.50;59.90;;;;;;5010587;28;19920;-71
2021/09/25 12:08:55;;;;;;;;;;;41.10;59.80;;;;;;5012538;28;19924;-74
2021/09/25 12:11:59;;;;;;;;;;;39.30;61.60;;;;;;5013310;28;19925;-72
2021/09/25 12:15:06;;;;;;;;;;;39.80;60.40;;;;;;5005869;28;19928;-71
2021/09/25 12:18:15;;;;;;;;;;;35.40;64.30;;;;;;4995551;28;19917;-71
2021/09/25 12:21:20;;;;;;;;;;;35.10;66.10;;;;;;4970201;28;19989;-71
2021/09/25 12:24:24;;;;;;;;;;;35.30;65.40;;;;;;4993308;28;19929;-71
2021/09/25 12:27:28;;;;;;;;;;;37.70;64.00;;;;;;5005799;28;19970;-74
2021/09/25 12:30:32;;;;;;;;;;;40.40;61.20;;;;;;5012712;28;20276;-75
2021/09/25 12:33:46;;;;;;;;;;;41.50;59.20;;;;;;5012837;28;19936;-73
2021/09/25 12:36:53;;;;;;;;;;;42.30;58.50;;;;;;4996421;28;19928;-72
2021/09/25 12:39:59;;;;;;;;;;;42.90;57.90;;;;;;4997085;28;19940;-72
2021/09/25 12:43:03;;;;;;;;;;;43.40;57.40;;;;;;4993556;28;19929;-74
2021/09/25 12:46:08;;;;;;;;;;;42.20;57.70;;;;;;5005579;28;19940;-74
2021/09/25 12:49:22;;;;;;;;;;;42.40;57.90;;;;;;5004991;28;19921;-75
2021/09/25 12:52:28;;;;;;;;;;;43.30;57.40;;;;;;4973440;28;19921;-72
2021/09/25 12:55:32;;;;;;;;;;;44.10;56.90;;;;;;4991969;28;19929;-74
2021/09/25 12:58:36;;;;;;;;;;;44.30;56.00;;;;;;4999155;28;19971;-75
2021/09/25 13:01:43;;;;;;;;;;;44.10;56.40;;;;;;5012648;28;20308;-75
2021/09/25 13:04:48;;;;;;;;;;;44.30;56.20;;;;;;4973123;28;19918;-71
2021/09/25 13:07:52;;;;;;;;;;;44.00;56.00;;;;;;4998628;28;19933;-70
2021/09/25 13:10:58;;;;;;;;;;;42.40;57.20;;;;;;5011906;28;20276;-72
2021/09/25 13:14:05;;;;;;;;;;;42.00;57.80;;;;;;5011871;28;19940;-75
2021/09/25 13:17:10;;;;;;;;;;;42.80;57.10;;;;;;5010584;28;19929;-75
2021/09/25 13:20:14;;;;;;;;;;;42.50;56.60;;;;;;5006376;28;19921;-74
2021/09/25 13:23:19;;;;;;;;;;;42.60;56.70;;;;;;4973069;28;19937;-75
2021/09/25 13:26:23;;;;;;;;;;;43.40;56.70;;;;;;5003011;28;20300;-73
2021/09/25 13:29:27;;;;;;;;;;;41.90;56.40;;;;;;5004577;28;19924;-73
2021/09/25 13:32:31;;;;;;;;;;;41.30;57.70;;;;;;4991911;28;19936;-74
2021/09/25 13:35:35;;;;;;;;;;;41.30;58.10;;;;;;4991260;28;19925;-73
2021/09/25 13:38:39;;;;;;;;;;;41.20;57.90;;;;;;5002398;28;19925;-74
2021/09/25 13:41:44;;;;;;;;;;;39.60;57.90;;;;;;4991935;28;19940;-74
2021/09/25 13:44:48;;;;;;;;;;;39.10;59.50;;;;;;4991152;28;19925;-74
2021/09/25 13:47:54;;;;;;;;;;;38.40;60.40;;;;;;4991925;28;19924;-74
2021/09/25 13:50:59;;;;;;;;;;;39.30;59.90;;;;;;5004793;28;19921;-74
2021/09/25 13:54:03;;;;;;;;;;;40.20;59.00;;;;;;5010910;28;19940;-74
2021/09/25 13:57:08;;;;;;;;;;;40.80;58.60;;;;;;5010278;28;20329;-75
2021/09/25 14:00:12;;;;;;;;;;;41.40;57.70;;;;;;5010342;28;20285;-75
2021/09/25 14:03:15;;;;;;;;;;;41.00;58.10;;;;;;4982404;28;19925;-74
2021/09/25 14:06:19;;;;;;;;;;;40.90;58.30;;;;;;4995368;28;20268;-74
2021/09/25 14:09:23;;;;;;;;;;;40.80;58.40;;;;;;5010551;28;19937;-75
2021/09/25 14:12:29;;;;;;;;;;;40.90;57.90;;;;;;4991528;28;19925;-73
2021/09/25 14:15:33;;;;;;;;;;;40.60;58.20;;;;;;5005767;28;19944;-75
2021/09/25 14:18:37;;;;;;;;;;;40.10;58.90;;;;;;5005630;28;20297;-74
2021/09/25 14:21:41;;;;;;;;;;;39.80;59.00;;;;;;5010661;28;20416;-75
2021/09/25 14:24:45;;;;;;;;;;;39.60;59.80;;;;;;4990914;28;20124;-75
2021/09/25 14:27:49;;;;;;;;;;;39.40;59.70;;;;;;4998180;28;20399;-75
2021/09/25 14:30:54;;;;;;;;;;;39.20;59.80;;;;;;5010643;28;19921;-74
2021/09/25 14:33:58;;;;;;;;;;;38.70;60.90;;;;;;4988156;28;19924;-74
2021/09/25 14:37:02;;;;;;;;;;;38.20;61.60;;;;;;4999460;28;19929;-74
2021/09/25 14:40:06;;;;;;;;;;;37.80;62.30;;;;;;5010148;28;19924;-74
2021/09/25 14:43:11;;;;;;;;;;;37.60;62.60;;;;;;4990863;28;19918;-74
2021/09/25 14:46:16;;;;;;;;;;;37.40;63.00;;;;;;5001035;28;19924;-74
2021/09/25 14:49:20;;;;;;;;;;;36.80;64.00;;;;;;5010030;28;20015;-73
2021/09/25 14:52:26;;;;;;;;;;;35.90;65.20;;;;;;4991364;28;20387;-72
2021/09/25 14:55:31;;;;;;;;;;;35.30;66.60;;;;;;5002106;28;19925;-73
2021/09/25 14:58:35;;;;;;;;;;;34.60;67.60;;;;;;5009235;28;19929;-73
2021/09/25 15:01:39;;;;;;;;;;;34.20;68.20;;;;;;5010532;28;19993;-73
2021/09/25 15:04:43;;;;;;;;;;;34.00;68.90;;;;;;5004256;28;19920;-73
2021/09/25 15:07:49;;;;;;;;;;;33.60;69.50;;;;;;5005638;28;19914;-73
2021/09/25 15:10:53;;;;;;;;;;;33.10;70.20;;;;;;4971554;28;19921;-74
2021/09/25 15:13:58;;;;;;;;;;;32.80;70.90;;;;;;5007066;28;19924;-73
2021/09/25 15:17:02;;;;;;;;;;;32.50;71.30;;;;;;5007983;28;19928;-73
2021/09/25 15:20:06;;;;;;;;;;;32.10;72.10;;;;;;5014221;28;19936;-73
2021/09/25 15:23:10;;;;;;;;;;;32.00;72.40;;;;;;4990987;28;19925;-73
2021/09/25 15:26:16;;;;;;;;;;;31.90;72.90;;;;;;4997658;28;19921;-72
2021/09/25 15:29:21;;;;;;;;;;;31.90;73.10;;;;;;5013899;28;19925;-73
2021/09/25 15:32:25;;;;;;;;;;;31.80;73.30;;;;;;5010746;28;19921;-73
2021/09/25 15:35:30;;;;;;;;;;;31.60;73.40;;;;;;5001262;28;20380;-73
2021/09/25 15:38:34;;;;;;;;;;;31.40;73.40;;;;;;4993971;28;20277;-73
2021/09/25 15:41:38;;;;;;;;;;;31.30;74.10;;;;;;4994222;28;19925;-73
2021/09/25 15:44:42;;;;;;;;;;;31.20;74.00;;;;;;4992770;28;19924;-73
2021/09/25 15:47:46;;;;;;;;;;;31.00;74.30;;;;;;4995812;28;20391;-73
2021/09/25 15:50:50;;;;;;;;;;;30.80;74.40;;;;;;5005304;28;19928;-75
2021/09/25 15:53:54;;;;;;;;;;;30.70;74.50;;;;;;4997350;28;19921;-73
2021/09/25 15:56:58;;;;;;;;;;;30.50;74.90;;;;;;4993024;28;19929;-73
2021/09/25 16:00:03;;;;;;;;;;;30.40;75.40;;;;;;4974261;28;19925;-72
2021/09/25 16:03:15;;;;;;;;;;;30.10;75.70;;;;;;5005833;28;19921;-73
2021/09/25 16:06:19;;;;;;;;;;;29.90;76.30;;;;;;5009138;28;20384;-73
2021/09/25 16:09:27;;;;;;;;;;;29.60;77.20;;;;;;4993656;28;20340;-72
2021/09/25 16:12:31;;;;;;;;;;;29.20;77.20;;;;;;4990202;28;19922;-73
2021/09/25 16:15:35;;;;;;;;;;;29.00;78.10;;;;;;4997051;28;19928;-73
2021/09/25 16:18:39;;;;;;;;;;;28.80;78.90;;;;;;5013015;28;19921;-72
2021/09/25 16:21:43;;;;;;;;;;;28.50;79.90;;;;;;4993795;28;20388;-73
2021/09/25 16:24:50;;;;;;;;;;;28.20;80.70;;;;;;5003429;28;19924;-73
2021/09/25 16:27:54;;;;;;;;;;;28.00;81.30;;;;;;5011489;28;20288;-73
2021/09/25 16:30:58;;;;;;;;;;;27.80;81.60;;;;;;4993015;28;19921;-73
2021/09/25 16:34:02;;;;;;;;;;;27.70;81.90;;;;;;5001213;28;20305;-73
2021/09/25 16:37:06;;;;;;;;;;;27.50;82.40;;;;;;5009577;28;19929;-73
2021/09/25 16:40:10;;;;;;;;;;;27.30;83.10;;;;;;4992991;28;19998;-73
2021/09/25 16:43:13;;;;;;;;;;;27.20;83.50;;;;;;4996229;28;19918;-72
2021/09/25 16:46:17;;;;;;;;;;;27.00;84.20;;;;;;5006403;28;19920;-73
2021/09/25 16:49:22;;;;;;;;;;;26.90;84.40;;;;;;5012600;28;20394;-72
2021/09/25 16:52:26;;;;;;;;;;;26.80;85.10;;;;;;4991016;28;19925;-72
2021/09/25 16:55:30;;;;;;;;;;;26.80;85.50;;;;;;4991996;28;19990;-72
2021/09/25 16:58:35;;;;;;;;;;;26.60;85.80;;;;;;4991836;28;19933;-72
2021/09/25 17:01:39;;;;;;;;;;;26.50;86.50;;;;;;5002970;28;19921;-73
2021/09/25 17:04:43;;;;;;;;;;;26.30;86.80;;;;;;5003224;28;20384;-72
2021/09/25 17:07:47;;;;;;;;;;;26.20;87.30;;;;;;4992167;28;19945;-73
2021/09/25 17:10:51;;;;;;;;;;;26.10;87.60;;;;;;5008623;28;19917;-73
2021/09/25 17:13:55;;;;;;;;;;;26.10;88.00;;;;;;5005827;28;19920;-73
2021/09/25 17:16:59;;;;;;;;;;;26.00;88.40;;;;;;5022080;28;19944;-73
2021/09/25 17:20:06;;;;;;;;;;;25.90;89.10;;;;;;4992329;28;19921;-73
2021/09/25 17:23:10;;;;;;;;;;;25.70;89.60;;;;;;4991570;28;19941;-73
2021/09/25 17:26:14;;;;;;;;;;;25.60;90.10;;;;;;4991600;28;19918;-73
2021/09/25 17:29:18;;;;;;;;;;;25.50;90.30;;;;;;4972448;28;19921;-72
2021/09/25 17:32:22;;;;;;;;;;;25.40;90.60;;;;;;5001697;28;19921;-73
2021/09/25 17:35:26;;;;;;;;;;;25.30;90.70;;;;;;4990273;28;19925;-73
2021/09/25 17:38:30;;;;;;;;;;;25.20;90.90;;;;;;4972345;28;19937;-73
2021/09/25 17:41:34;;;;;;;;;;;25.10;91.10;;;;;;5000608;28;19924;-72
2021/09/25 17:44:38;;;;;;;;;;;25.10;91.30;;;;;;5020073;28;19933;-72
2021/09/25 17:47:42;;;;;;;;;;;25.10;91.40;;;;;;5011683;28;19925;-73
2021/09/25 17:50:46;;;;;;;;;;;24.90;91.60;;;;;;5002653;28;20277;-72
2021/09/25 17:53:50;;;;;;;;;;;24.90;91.80;;;;;;5003550;28;20387;-72